sensor_id;sensor_type;location;lat;lon;timestamp;temperature;humidity
74420;DHT22;62855;50.718;-2.460;2023-05-07T00:02:06;51.80;90.00
74420;DHT22;62855;50.718;-2.460;2023-05-07T00:05:07;51.80;90.00
74420;DHT22;62855;50.718;-2.460;2023-05-07T00:08:05;51.80;90.00
74420;DHT22;62855;50.718;-2.460;2023-05-07T00:11:06;51.80;90.00
74420;DHT22;62855;50.718;-2.460;2023-05-07T00:14:06;51.80;90.00
74420;DHT22;62855;50.718;-2.460;2023-05-07T00:17:06;51.80;90.00
74420;DHT22;62855;50.718;-2.460;2023-05-07T00:20:07;51.80;90.00
74420;DHT22;62855;50.718;-2.460;2023-05-07T00:23:05;51.80;90.00
74420;DHT22;62855;50.718;-2.460;2023-05-07T00:26:06;51.98;90.00
74420;DHT22;62855;50.718;-2.460;2023-05-07T00:29:06;51.98;90.00
74420;DHT22;62855;50.718;-2.460;2023-05-07T00:32:06;51.98;90.00
74420;DHT22;62855;50.718;-2.460;2023-05-07T00:35:07;51.98;90.00
74420;DHT22;62855;50.718;-2.460;2023-05-07T00:38:06;51.98;90.00
74420;DHT22;62855;50.718;-2.460;2023-05-07T00:41:06;51.98;90.00
74420;DHT22;62855;50.718;-2.460;2023-05-07T00:44:06;52.16;90.00
74420;DHT22;62855;50.718;-2.460;2023-05-07T00:47:06;52.16;90.00
74420;DHT22;62855;50.718;-2.460;2023-05-07T00:50:07;52.16;90.00
74420;DHT22;62855;50.718;-2.460;2023-05-07T00:53:06;52.16;90.00
74420;DHT22;62855;50.718;-2.460;2023-05-07T00:56:06;52.16;90.00
74420;DHT22;62855;50.718;-2.460;2023-05-07T00:59:06;52.16;90.00
74420;DHT22;62855;50.718;-2.460;2023-05-07T01:02:05;52.16;90.00
74420;DHT22;62855;50.718;-2.460;2023-05-07T01:05:08;52.16;90.00
74420;DHT22;62855;50.718;-2.460;2023-05-07T01:08:06;52.16;90.00
74420;DHT22;62855;50.718;-2.460;2023-05-07T01:11:07;51.98;90.00
74420;DHT22;62855;50.718;-2.460;2023-05-07T01:14:07;51.80;90.00
74420;DHT22;62855;50.718;-2.460;2023-05-07T01:17:06;51.80;90.00
74420;DHT22;62855;50.718;-2.460;2023-05-07T01:20:07;51.80;90.00
74420;DHT22;62855;50.718;-2.460;2023-05-07T01:23:07;51.98;90.00
74420;DHT22;62855;50.718;-2.460;2023-05-07T01:26:06;51.98;90.00
74420;DHT22;62855;50.718;-2.460;2023-05-07T01:29:06;51.98;90.00
74420;DHT22;62855;50.718;-2.460;2023-05-07T01:32:06;51.98;90.00
74420;DHT22;62855;50.718;-2.460;2023-05-07T01:35:09;51.98;90.00
74420;DHT22;62855;50.718;-2.460;2023-05-07T01:38:06;51.98;90.00
74420;DHT22;62855;50.718;-2.460;2023-05-07T01:41:07;51.98;90.00
74420;DHT22;62855;50.718;-2.460;2023-05-07T01:44:05;51.98;90.00
74420;DHT22;62855;50.718;-2.460;2023-05-07T01:47:06;51.98;90.00
74420;DHT22;62855;50.718;-2.460;2023-05-07T01:50:07;51.98;90.00
74420;DHT22;62855;50.718;-2.460;2023-05-07T01:53:06;51.98;90.00
74420;DHT22;62855;50.718;-2.460;2023-05-07T01:56:06;51.98;90.00
74420;DHT22;62855;50.718;-2.460;2023-05-07T01:59:06;51.98;90.00
74420;DHT22;62855;50.718;-2.460;2023-05-07T02:02:06;51.98;90.00
74420;DHT22;62855;50.718;-2.460;2023-05-07T02:05:07;51.98;90.00
74420;DHT22;62855;50.718;-2.460;2023-05-07T02:08:06;51.98;90.00
74420;DHT22;62855;50.718;-2.460;2023-05-07T02:11:05;51.98;90.00
74420;DHT22;62855;50.718;-2.460;2023-05-07T02:14:06;51.98;90.00
74420;DHT22;62855;50.718;-2.460;2023-05-07T02:17:06;51.98;90.00
74420;DHT22;62855;50.718;-2.460;2023-05-07T02:20:07;51.98;90.00
74420;DHT22;62855;50.718;-2.460;2023-05-07T02:23:06;51.80;90.00
74420;DHT22;62855;50.718;-2.460;2023-05-07T02:26:06;51.80;90.00
74420;DHT22;62855;50.718;-2.460;2023-05-07T02:29:06;51.80;90.00
74420;DHT22;62855;50.718;-2.460;2023-05-07T02:32:06;51.80;90.00
74420;DHT22;62855;50.718;-2.460;2023-05-07T02:35:07;51.80;90.00
74420;DHT22;62855;50.718;-2.460;2023-05-07T02:38:05;51.80;90.00
74420;DHT22;62855;50.718;-2.460;2023-05-07T02:41:06;51.80;90.00
74420;DHT22;62855;50.718;-2.460;2023-05-07T02:44:06;51.80;90.00
74420;DHT22;62855;50.718;-2.460;2023-05-07T02:47:06;51.80;90.00
74420;DHT22;62855;50.718;-2.460;2023-05-07T02:50:07;51.80;90.00
74420;DHT22;62855;50.718;-2.460;2023-05-07T02:53:05;51.80;90.00
74420;DHT22;62855;50.718;-2.460;2023-05-07T02:56:06;51.80;90.00
74420;DHT22;62855;50.718;-2.460;2023-05-07T02:59:06;51.80;90.00
74420;DHT22;62855;50.718;-2.460;2023-05-07T03:02:06;51.80;90.00
74420;DHT22;62855;50.718;-2.460;2023-05-07T03:05:06;51.62;90.00
74420;DHT22;62855;50.718;-2.460;2023-05-07T03:08:06;51.62;90.00
74420;DHT22;62855;50.718;-2.460;2023-05-07T03:11:06;51.62;90.00
74420;DHT22;62855;50.718;-2.460;2023-05-07T03:14:06;51.44;90.00
74420;DHT22;62855;50.718;-2.460;2023-05-07T03:17:06;51.26;90.00
74420;DHT22;62855;50.718;-2.460;2023-05-07T03:20:07;51.26;90.00
74420;DHT22;62855;50.718;-2.460;2023-05-07T03:23:06;51.08;90.00
74420;DHT22;62855;50.718;-2.460;2023-05-07T03:26:06;51.08;90.00
74420;DHT22;62855;50.718;-2.460;2023-05-07T03:29:06;50.90;90.00
74420;DHT22;62855;50.718;-2.460;2023-05-07T03:32:05;50.90;90.00
74420;DHT22;62855;50.718;-2.460;2023-05-07T03:35:06;50.72;90.00
74420;DHT22;62855;50.718;-2.460;2023-05-07T03:38:06;50.72;90.00
74420;DHT22;62855;50.718;-2.460;2023-05-07T03:41:06;50.54;90.00
74420;DHT22;62855;50.718;-2.460;2023-05-07T03:44:06;50.54;90.00
74420;DHT22;62855;50.718;-2.460;2023-05-07T03:47:05;50.54;90.00
74420;DHT22;62855;50.718;-2.460;2023-05-07T03:50:06;50.54;90.00
74420;DHT22;62855;50.718;-2.460;2023-05-07T03:53:06;50.36;90.00
74420;DHT22;62855;50.718;-2.460;2023-05-07T03:56:06;50.36;90.00
74420;DHT22;62855;50.718;-2.460;2023-05-07T03:59:06;50.18;90.00
74420;DHT22;62855;50.718;-2.460;2023-05-07T04:02:05;50.18;90.00
74420;DHT22;62855;50.718;-2.460;2023-05-07T04:05:06;50.00;90.00
74420;DHT22;62855;50.718;-2.460;2023-05-07T04:08:06;50.00;90.00
74420;DHT22;62855;50.718;-2.460;2023-05-07T04:11:06;50.00;90.00
74420;DHT22;62855;50.718;-2.460;2023-05-07T04:14:05;49.82;89.00
74420;DHT22;62855;50.718;-2.460;2023-05-07T04:17:06;49.82;89.00
74420;DHT22;62855;50.718;-2.460;2023-05-07T04:20:08;49.82;89.00
74420;DHT22;62855;50.718;-2.460;2023-05-07T04:23:06;49.82;89.00
74420;DHT22;62855;50.718;-2.460;2023-05-07T04:26:06;49.82;89.00
74420;DHT22;62855;50.718;-2.460;2023-05-07T04:29:05;49.82;89.00
74420;DHT22;62855;50.718;-2.460;2023-05-07T04:32:06;49.64;89.00
74420;DHT22;62855;50.718;-2.460;2023-05-07T04:35:06;49.64;89.00
74420;DHT22;62855;50.718;-2.460;2023-05-07T04:38:06;49.64;89.00
74420;DHT22;62855;50.718;-2.460;2023-05-07T04:41:08;49.46;89.00
74420;DHT22;62855;50.718;-2.460;2023-05-07T04:44:05;49.46;89.00
74420;DHT22;62855;50.718;-2.460;2023-05-07T04:47:06;49.46;89.00
74420;DHT22;62855;50.718;-2.460;2023-05-07T04:50:07;49.46;89.00
74420;DHT22;62855;50.718;-2.460;2023-05-07T04:53:06;49.28;99.00
74420;DHT22;62855;50.718;-2.460;2023-05-07T04:56:06;49.28;99.00
74420;DHT22;62855;50.718;-2.460;2023-05-07T04:59:06;49.28;99.00
74420;DHT22;62855;50.718;-2.460;2023-05-07T05:02:06;49.46;99.00
74420;DHT22;62855;50.718;-2.460;2023-05-07T05:05:07;49.46;99.00
74420;DHT22;62855;50.718;-2.460;2023-05-07T05:08:06;49.46;99.00
74420;DHT22;62855;50.718;-2.460;2023-05-07T05:11:06;49.46;99.00
74420;DHT22;62855;50.718;-2.460;2023-05-07T05:14:06;49.46;99.00
74420;DHT22;62855;50.718;-2.460;2023-05-07T05:17:06;49.46;99.00
74420;DHT22;62855;50.718;-2.460;2023-05-07T05:20:07;49.46;99.00
74420;DHT22;62855;50.718;-2.460;2023-05-07T05:23:05;49.46;99.00
74420;DHT22;62855;50.718;-2.460;2023-05-07T05:26:06;49.28;99.00
74420;DHT22;62855;50.718;-2.460;2023-05-07T05:29:06;49.28;99.00
74420;DHT22;62855;50.718;-2.460;2023-05-07T05:32:06;49.28;99.00
74420;DHT22;62855;50.718;-2.460;2023-05-07T05:35:07;49.28;99.00
74420;DHT22;62855;50.718;-2.460;2023-05-07T05:38:05;49.28;99.00
74420;DHT22;62855;50.718;-2.460;2023-05-07T05:41:06;49.46;99.00
74420;DHT22;62855;50.718;-2.460;2023-05-07T05:44:06;49.46;99.00
74420;DHT22;62855;50.718;-2.460;2023-05-07T05:47:06;49.46;99.00
74420;DHT22;62855;50.718;-2.460;2023-05-07T05:50:06;49.46;99.00
74420;DHT22;62855;50.718;-2.460;2023-05-07T05:53:06;49.64;99.00
74420;DHT22;62855;50.718;-2.460;2023-05-07T05:56:06;49.64;99.00
74420;DHT22;62855;50.718;-2.460;2023-05-07T05:59:06;49.82;99.00
74420;DHT22;62855;50.718;-2.460;2023-05-07T06:03:05;49.82;99.00
74420;DHT22;62855;50.718;-2.460;2023-05-07T06:06:06;49.82;99.00
74420;DHT22;62855;50.718;-2.460;2023-05-07T06:09:06;50.00;99.00
74420;DHT22;62855;50.718;-2.460;2023-05-07T06:12:06;50.00;99.00
74420;DHT22;62855;50.718;-2.460;2023-05-07T06:15:06;50.18;99.00
74420;DHT22;62855;50.718;-2.460;2023-05-07T06:18:06;50.36;99.00
74420;DHT22;62855;50.718;-2.460;2023-05-07T06:21:06;50.54;99.00
74420;DHT22;62855;50.718;-2.460;2023-05-07T06:24:07;50.72;99.00
74420;DHT22;62855;50.718;-2.460;2023-05-07T06:27:05;50.90;99.00
74420;DHT22;62855;50.718;-2.460;2023-05-07T06:30:07;50.90;99.00
74420;DHT22;62855;50.718;-2.460;2023-05-07T06:33:06;51.08;99.00
74420;DHT22;62855;50.718;-2.460;2023-05-07T06:36:06;51.08;99.00
74420;DHT22;62855;50.718;-2.460;2023-05-07T06:39:06;51.08;99.00
74420;DHT22;62855;50.718;-2.460;2023-05-07T06:42:05;51.26;99.00
74420;DHT22;62855;50.718;-2.460;2023-05-07T06:45:07;51.26;99.00
74420;DHT22;62855;50.718;-2.460;2023-05-07T06:48:06;51.44;99.00
74420;DHT22;62855;50.718;-2.460;2023-05-07T06:51:06;51.44;99.00
74420;DHT22;62855;50.718;-2.460;2023-05-07T06:54:05;51.62;99.00
74420;DHT22;62855;50.718;-2.460;2023-05-07T06:57:06;51.62;99.00
74420;DHT22;62855;50.718;-2.460;2023-05-07T07:00:07;51.80;99.00
74420;DHT22;62855;50.718;-2.460;2023-05-07T07:03:06;51.98;99.00
74420;DHT22;62855;50.718;-2.460;2023-05-07T07:06:06;52.16;99.00
74420;DHT22;62855;50.718;-2.460;2023-05-07T07:09:05;52.52;99.00
74420;DHT22;62855;50.718;-2.460;2023-05-07T07:12:06;52.70;99.00
74420;DHT22;62855;50.718;-2.460;2023-05-07T07:15:07;52.70;99.00
74420;DHT22;62855;50.718;-2.460;2023-05-07T07:18:06;52.70;99.00
74420;DHT22;62855;50.718;-2.460;2023-05-07T07:21:06;53.06;99.00
74420;DHT22;62855;50.718;-2.460;2023-05-07T07:24:06;53.06;99.00
74420;DHT22;62855;50.718;-2.460;2023-05-07T07:27:06;53.06;99.00
74420;DHT22;62855;50.718;-2.460;2023-05-07T07:30:07;53.06;99.00
74420;DHT22;62855;50.718;-2.460;2023-05-07T07:33:06;53.24;99.00
74420;DHT22;62855;50.718;-2.460;2023-05-07T07:36:06;53.42;99.00
74420;DHT22;62855;50.718;-2.460;2023-05-07T07:39:06;53.60;99.00
74420;DHT22;62855;50.718;-2.460;2023-05-07T07:42:06;53.96;99.00
74420;DHT22;62855;50.718;-2.460;2023-05-07T07:45:07;54.14;99.00
74420;DHT22;62855;50.718;-2.460;2023-05-07T07:48:05;54.14;99.00
74420;DHT22;62855;50.718;-2.460;2023-05-07T07:51:06;54.14;99.00
74420;DHT22;62855;50.718;-2.460;2023-05-07T07:54:06;54.14;99.00
74420;DHT22;62855;50.718;-2.460;2023-05-07T07:57:06;54.50;99.00
74420;DHT22;62855;50.718;-2.460;2023-05-07T08:00:07;55.22;99.00
74420;DHT22;62855;50.718;-2.460;2023-05-07T08:03:06;55.58;99.00
74420;DHT22;62855;50.718;-2.460;2023-05-07T08:06:06;56.30;99.00
74420;DHT22;62855;50.718;-2.460;2023-05-07T08:09:06;56.66;99.00
74420;DHT22;62855;50.718;-2.460;2023-05-07T08:12:07;57.20;99.00
74420;DHT22;62855;50.718;-2.460;2023-05-07T08:15:07;57.38;99.00
74420;DHT22;62855;50.718;-2.460;2023-05-07T08:18:06;57.20;99.00
74420;DHT22;62855;50.718;-2.460;2023-05-07T08:21:06;57.02;99.00
74420;DHT22;62855;50.718;-2.460;2023-05-07T08:24:06;57.02;99.00
74420;DHT22;62855;50.718;-2.460;2023-05-07T08:27:06;57.02;99.00
74420;DHT22;62855;50.718;-2.460;2023-05-07T08:30:07;57.02;99.00
74420;DHT22;62855;50.718;-2.460;2023-05-07T08:33:06;57.56;98.00
74420;DHT22;62855;50.718;-2.460;2023-05-07T08:36:06;57.92;96.00
74420;DHT22;62855;50.718;-2.460;2023-05-07T08:39:06;58.10;95.00
74420;DHT22;62855;50.718;-2.460;2023-05-07T08:42:06;58.28;92.00
74420;DHT22;62855;50.718;-2.460;2023-05-07T08:45:09;58.46;90.00
74420;DHT22;62855;50.718;-2.460;2023-05-07T08:48:09;58.46;87.00
74420;DHT22;62855;50.718;-2.460;2023-05-07T08:51:06;58.64;85.00
74420;DHT22;62855;50.718;-2.460;2023-05-07T08:54:06;59.36;83.00
74420;DHT22;62855;50.718;-2.460;2023-05-07T08:57:05;59.90;83.00
74420;DHT22;62855;50.718;-2.460;2023-05-07T09:00:07;60.62;83.00
74420;DHT22;62855;50.718;-2.460;2023-05-07T09:03:06;61.16;83.00
74420;DHT22;62855;50.718;-2.460;2023-05-07T09:06:06;61.52;83.00
74420;DHT22;62855;50.718;-2.460;2023-05-07T09:09:06;61.52;83.00
74420;DHT22;62855;50.718;-2.460;2023-05-07T09:12:06;62.06;83.00
74420;DHT22;62855;50.718;-2.460;2023-05-07T09:15:07;62.42;83.00
74420;DHT22;62855;50.718;-2.460;2023-05-07T09:18:06;62.60;83.00
74420;DHT22;62855;50.718;-2.460;2023-05-07T09:21:09;62.60;83.00
74420;DHT22;62855;50.718;-2.460;2023-05-07T09:24:06;62.42;83.00
74420;DHT22;62855;50.718;-2.460;2023-05-07T09:27:06;62.78;83.00
74420;DHT22;62855;50.718;-2.460;2023-05-07T09:30:07;62.60;83.00
74420;DHT22;62855;50.718;-2.460;2023-05-07T09:33:06;62.42;83.00
74420;DHT22;62855;50.718;-2.460;2023-05-07T09:36:08;62.42;83.00
74420;DHT22;62855;50.718;-2.460;2023-05-07T09:39:05;62.42;83.00
74420;DHT22;62855;50.718;-2.460;2023-05-07T09:42:06;62.42;83.00
74420;DHT22;62855;50.718;-2.460;2023-05-07T09:45:07;62.42;83.00
74420;DHT22;62855;50.718;-2.460;2023-05-07T09:48:06;62.42;83.00
74420;DHT22;62855;50.718;-2.460;2023-05-07T09:51:21;62.60;83.00
74420;DHT22;62855;50.718;-2.460;2023-05-07T09:54:06;62.42;83.00
74420;DHT22;62855;50.718;-2.460;2023-05-07T09:57:07;62.78;83.00
74420;DHT22;62855;50.718;-2.460;2023-05-07T10:00:07;62.96;83.00
74420;DHT22;62855;50.718;-2.460;2023-05-07T10:03:08;63.14;83.00
74420;DHT22;62855;50.718;-2.460;2023-05-07T10:06:07;63.32;83.00
74420;DHT22;62855;50.718;-2.460;2023-05-07T10:09:06;63.14;83.00
74420;DHT22;62855;50.718;-2.460;2023-05-07T10:12:06;62.96;83.00
74420;DHT22;62855;50.718;-2.460;2023-05-07T10:15:07;63.14;83.00
74420;DHT22;62855;50.718;-2.460;2023-05-07T10:18:07;63.50;83.00
74420;DHT22;62855;50.718;-2.460;2023-05-07T10:21:08;63.68;83.00
74420;DHT22;62855;50.718;-2.460;2023-05-07T10:24:09;63.68;83.00
74420;DHT22;62855;50.718;-2.460;2023-05-07T10:27:09;63.68;83.00
74420;DHT22;62855;50.718;-2.460;2023-05-07T10:30:15;63.86;83.00
74420;DHT22;62855;50.718;-2.460;2023-05-07T10:33:09;64.04;83.00
74420;DHT22;62855;50.718;-2.460;2023-05-07T10:36:06;64.22;83.00
74420;DHT22;62855;50.718;-2.460;2023-05-07T10:39:06;64.40;83.00
74420;DHT22;62855;50.718;-2.460;2023-05-07T10:42:08;64.22;83.00
74420;DHT22;62855;50.718;-2.460;2023-05-07T10:45:13;64.04;83.00
74420;DHT22;62855;50.718;-2.460;2023-05-07T10:48:07;64.22;83.00
74420;DHT22;62855;50.718;-2.460;2023-05-07T10:51:20;64.22;83.00
74420;DHT22;62855;50.718;-2.460;2023-05-07T10:54:19;64.40;83.00
74420;DHT22;62855;50.718;-2.460;2023-05-07T10:57:32;64.40;83.00
74420;DHT22;62855;50.718;-2.460;2023-05-07T11:03:06;64.76;83.00
74420;DHT22;62855;50.718;-2.460;2023-05-07T11:06:10;64.76;83.00
74420;DHT22;62855;50.718;-2.460;2023-05-07T11:09:06;64.94;83.00
74420;DHT22;62855;50.718;-2.460;2023-05-07T11:12:06;64.76;83.00
74420;DHT22;62855;50.718;-2.460;2023-05-07T11:15:07;64.40;83.00
74420;DHT22;62855;50.718;-2.460;2023-05-07T11:18:06;64.40;83.00
74420;DHT22;62855;50.718;-2.460;2023-05-07T11:21:06;64.58;83.00
74420;DHT22;62855;50.718;-2.460;2023-05-07T11:24:08;64.76;83.00
74420;DHT22;62855;50.718;-2.460;2023-05-07T11:27:06;64.76;83.00
74420;DHT22;62855;50.718;-2.460;2023-05-07T11:30:07;64.58;83.00
74420;DHT22;62855;50.718;-2.460;2023-05-07T11:33:06;64.40;83.00
74420;DHT22;62855;50.718;-2.460;2023-05-07T11:36:07;64.22;83.00
74420;DHT22;62855;50.718;-2.460;2023-05-07T11:39:24;64.04;83.00
74420;DHT22;62855;50.718;-2.460;2023-05-07T11:42:06;64.04;83.00
74420;DHT22;62855;50.718;-2.460;2023-05-07T11:45:07;64.40;83.00
74420;DHT22;62855;50.718;-2.460;2023-05-07T11:48:06;64.94;83.00
74420;DHT22;62855;50.718;-2.460;2023-05-07T11:51:07;65.30;83.00
74420;DHT22;62855;50.718;-2.460;2023-05-07T11:54:06;65.48;83.00
74420;DHT22;62855;50.718;-2.460;2023-05-07T11:57:06;65.30;83.00
74420;DHT22;62855;50.718;-2.460;2023-05-07T12:00:07;65.12;83.00
74420;DHT22;62855;50.718;-2.460;2023-05-07T12:03:06;65.12;83.00
74420;DHT22;62855;50.718;-2.460;2023-05-07T12:06:07;65.12;83.00
74420;DHT22;62855;50.718;-2.460;2023-05-07T12:09:06;64.94;83.00
74420;DHT22;62855;50.718;-2.460;2023-05-07T12:12:06;64.94;83.00
74420;DHT22;62855;50.718;-2.460;2023-05-07T12:15:07;64.58;83.00
74420;DHT22;62855;50.718;-2.460;2023-05-07T12:18:07;64.40;83.00
74420;DHT22;62855;50.718;-2.460;2023-05-07T12:21:06;64.58;83.00
74420;DHT22;62855;50.718;-2.460;2023-05-07T12:24:06;64.94;83.00
74420;DHT22;62855;50.718;-2.460;2023-05-07T12:27:06;65.30;83.00
74420;DHT22;62855;50.718;-2.460;2023-05-07T12:30:09;65.30;83.00
74420;DHT22;62855;50.718;-2.460;2023-05-07T12:33:06;65.66;83.00
74420;DHT22;62855;50.718;-2.460;2023-05-07T12:36:07;66.02;83.00
74420;DHT22;62855;50.718;-2.460;2023-05-07T12:39:06;66.74;83.00
74420;DHT22;62855;50.718;-2.460;2023-05-07T12:42:06;66.74;83.00
74420;DHT22;62855;50.718;-2.460;2023-05-07T12:45:08;66.56;83.00
74420;DHT22;62855;50.718;-2.460;2023-05-07T12:48:05;66.20;83.00
74420;DHT22;62855;50.718;-2.460;2023-05-07T12:51:06;66.38;83.00
74420;DHT22;62855;50.718;-2.460;2023-05-07T12:54:06;66.38;83.00
74420;DHT22;62855;50.718;-2.460;2023-05-07T12:57:08;66.20;83.00
74420;DHT22;62855;50.718;-2.460;2023-05-07T13:00:07;66.02;83.00
74420;DHT22;62855;50.718;-2.460;2023-05-07T13:03:06;65.84;83.00
74420;DHT22;62855;50.718;-2.460;2023-05-07T13:06:07;65.84;83.00
74420;DHT22;62855;50.718;-2.460;2023-05-07T13:09:06;65.84;83.00
74420;DHT22;62855;50.718;-2.460;2023-05-07T13:12:06;65.84;83.00
74420;DHT22;62855;50.718;-2.460;2023-05-07T13:15:07;66.02;83.00
74420;DHT22;62855;50.718;-2.460;2023-05-07T13:18:06;66.38;83.00
74420;DHT22;62855;50.718;-2.460;2023-05-07T13:21:06;66.74;83.00
74420;DHT22;62855;50.718;-2.460;2023-05-07T13:24:07;66.74;83.00
74420;DHT22;62855;50.718;-2.460;2023-05-07T13:27:06;66.56;83.00
74420;DHT22;62855;50.718;-2.460;2023-05-07T13:30:06;66.38;83.00
74420;DHT22;62855;50.718;-2.460;2023-05-07T13:33:06;66.02;83.00
74420;DHT22;62855;50.718;-2.460;2023-05-07T13:36:06;66.02;83.00
74420;DHT22;62855;50.718;-2.460;2023-05-07T13:39:06;65.84;83.00
74420;DHT22;62855;50.718;-2.460;2023-05-07T13:42:06;65.84;83.00
74420;DHT22;62855;50.718;-2.460;2023-05-07T13:45:07;65.84;83.00
74420;DHT22;62855;50.718;-2.460;2023-05-07T13:48:06;65.84;83.00
74420;DHT22;62855;50.718;-2.460;2023-05-07T13:51:06;65.84;83.00
74420;DHT22;62855;50.718;-2.460;2023-05-07T13:54:06;65.84;83.00
74420;DHT22;62855;50.718;-2.460;2023-05-07T13:57:05;65.84;83.00
74420;DHT22;62855;50.718;-2.460;2023-05-07T14:00:07;65.66;83.00
74420;DHT22;62855;50.718;-2.460;2023-05-07T14:03:06;65.48;83.00
74420;DHT22;62855;50.718;-2.460;2023-05-07T14:06:06;65.48;83.00
74420;DHT22;62855;50.718;-2.460;2023-05-07T14:09:06;65.48;83.00
74420;DHT22;62855;50.718;-2.460;2023-05-07T14:12:06;65.48;83.00
74420;DHT22;62855;50.718;-2.460;2023-05-07T14:15:07;65.48;83.00
74420;DHT22;62855;50.718;-2.460;2023-05-07T14:18:06;65.30;83.00
74420;DHT22;62855;50.718;-2.460;2023-05-07T14:21:06;65.30;83.00
74420;DHT22;62855;50.718;-2.460;2023-05-07T14:24:06;65.30;83.00
74420;DHT22;62855;50.718;-2.460;2023-05-07T14:27:06;65.48;83.00
74420;DHT22;62855;50.718;-2.460;2023-05-07T14:30:07;65.30;83.00
74420;DHT22;62855;50.718;-2.460;2023-05-07T14:33:06;65.30;83.00
74420;DHT22;62855;50.718;-2.460;2023-05-07T14:36:07;65.30;83.00
74420;DHT22;62855;50.718;-2.460;2023-05-07T14:39:05;65.30;83.00
74420;DHT22;62855;50.718;-2.460;2023-05-07T14:42:06;65.12;83.00
74420;DHT22;62855;50.718;-2.460;2023-05-07T14:45:07;65.12;83.00
74420;DHT22;62855;50.718;-2.460;2023-05-07T14:48:06;64.94;83.00
74420;DHT22;62855;50.718;-2.460;2023-05-07T14:51:05;64.94;83.00
74420;DHT22;62855;50.718;-2.460;2023-05-07T14:54:05;64.94;83.00
74420;DHT22;62855;50.718;-2.460;2023-05-07T14:57:08;64.94;83.00
74420;DHT22;62855;50.718;-2.460;2023-05-07T15:00:07;64.94;83.00
74420;DHT22;62855;50.718;-2.460;2023-05-07T15:03:07;64.94;83.00
74420;DHT22;62855;50.718;-2.460;2023-05-07T15:06:05;64.94;83.00
74420;DHT22;62855;50.718;-2.460;2023-05-07T15:09:06;64.76;83.00
74420;DHT22;62855;50.718;-2.460;2023-05-07T15:12:06;64.76;83.00
74420;DHT22;62855;50.718;-2.460;2023-05-07T15:15:07;64.76;83.00
74420;DHT22;62855;50.718;-2.460;2023-05-07T15:18:05;64.58;83.00
74420;DHT22;62855;50.718;-2.460;2023-05-07T15:21:06;64.76;83.00
74420;DHT22;62855;50.718;-2.460;2023-05-07T15:24:06;64.58;83.00
74420;DHT22;62855;50.718;-2.460;2023-05-07T15:27:06;64.76;83.00
74420;DHT22;62855;50.718;-2.460;2023-05-07T15:30:07;64.76;83.00
74420;DHT22;62855;50.718;-2.460;2023-05-07T15:33:05;64.76;83.00
74420;DHT22;62855;50.718;-2.460;2023-05-07T15:36:06;64.76;83.00
74420;DHT22;62855;50.718;-2.460;2023-05-07T15:39:06;64.76;83.00
74420;DHT22;62855;50.718;-2.460;2023-05-07T15:42:06;64.58;83.00
74420;DHT22;62855;50.718;-2.460;2023-05-07T15:45:07;64.40;83.00
74420;DHT22;62855;50.718;-2.460;2023-05-07T15:48:06;64.04;83.00
74420;DHT22;62855;50.718;-2.460;2023-05-07T15:51:06;63.86;83.00
74420;DHT22;62855;50.718;-2.460;2023-05-07T15:54:06;64.04;83.00
74420;DHT22;62855;50.718;-2.460;2023-05-07T15:57:06;64.22;83.00
74420;DHT22;62855;50.718;-2.460;2023-05-07T16:00:06;64.04;83.00
74420;DHT22;62855;50.718;-2.460;2023-05-07T16:03:06;63.86;83.00
74420;DHT22;62855;50.718;-2.460;2023-05-07T16:06:06;63.86;83.00
74420;DHT22;62855;50.718;-2.460;2023-05-07T16:09:06;63.86;83.00
74420;DHT22;62855;50.718;-2.460;2023-05-07T16:12:06;63.68;83.00
74420;DHT22;62855;50.718;-2.460;2023-05-07T16:15:06;63.50;83.00
74420;DHT22;62855;50.718;-2.460;2023-05-07T16:18:06;63.32;83.00
74420;DHT22;62855;50.718;-2.460;2023-05-07T16:21:06;63.14;83.00
74420;DHT22;62855;50.718;-2.460;2023-05-07T16:24:07;62.96;83.00
74420;DHT22;62855;50.718;-2.460;2023-05-07T16:27:05;62.78;83.00
74420;DHT22;62855;50.718;-2.460;2023-05-07T16:30:07;62.60;83.00
74420;DHT22;62855;50.718;-2.460;2023-05-07T16:33:06;62.60;83.00
74420;DHT22;62855;50.718;-2.460;2023-05-07T16:36:06;62.60;83.00
74420;DHT22;62855;50.718;-2.460;2023-05-07T16:40:07;62.42;83.00
74420;DHT22;62855;50.718;-2.460;2023-05-07T16:43:06;62.42;83.00
74420;DHT22;62855;50.718;-2.460;2023-05-07T16:46:06;62.42;83.00
74420;DHT22;62855;50.718;-2.460;2023-05-07T16:49:05;62.24;83.00
74420;DHT22;62855;50.718;-2.460;2023-05-07T16:52:05;62.06;83.00
74420;DHT22;62855;50.718;-2.460;2023-05-07T16:55:06;62.06;83.00
74420;DHT22;62855;50.718;-2.460;2023-05-07T16:58:06;61.88;83.00
74420;DHT22;62855;50.718;-2.460;2023-05-07T17:01:07;61.88;83.00
74420;DHT22;62855;50.718;-2.460;2023-05-07T17:04:05;61.70;83.00
74420;DHT22;62855;50.718;-2.460;2023-05-07T17:07:06;61.52;83.00
74420;DHT22;62855;50.718;-2.460;2023-05-07T17:10:07;61.16;83.00
74420;DHT22;62855;50.718;-2.460;2023-05-07T17:13:06;60.98;83.00
74420;DHT22;62855;50.718;-2.460;2023-05-07T17:16:05;60.80;83.00
74420;DHT22;62855;50.718;-2.460;2023-05-07T17:19:05;60.62;83.00
74420;DHT22;62855;50.718;-2.460;2023-05-07T17:22:06;60.80;83.00
74420;DHT22;62855;50.718;-2.460;2023-05-07T17:25:06;60.80;83.00
74420;DHT22;62855;50.718;-2.460;2023-05-07T17:28:06;60.62;83.00
74420;DHT22;62855;50.718;-2.460;2023-05-07T17:31:05;60.62;83.00
74420;DHT22;62855;50.718;-2.460;2023-05-07T17:34:05;60.62;83.00
74420;DHT22;62855;50.718;-2.460;2023-05-07T17:37:06;60.62;83.00
74420;DHT22;62855;50.718;-2.460;2023-05-07T17:40:07;60.62;83.00
74420;DHT22;62855;50.718;-2.460;2023-05-07T17:43:06;60.44;83.00
74420;DHT22;62855;50.718;-2.460;2023-05-07T17:46:07;60.26;83.00
74420;DHT22;62855;50.718;-2.460;2023-05-07T17:49:06;60.26;83.00
74420;DHT22;62855;50.718;-2.460;2023-05-07T17:52:06;59.90;83.00
74420;DHT22;62855;50.718;-2.460;2023-05-07T17:55:07;59.72;83.00
74420;DHT22;62855;50.718;-2.460;2023-05-07T17:58:06;59.72;83.00
74420;DHT22;62855;50.718;-2.460;2023-05-07T18:01:06;59.72;83.00
74420;DHT22;62855;50.718;-2.460;2023-05-07T18:04:07;59.72;83.00
74420;DHT22;62855;50.718;-2.460;2023-05-07T18:07:06;59.72;83.00
74420;DHT22;62855;50.718;-2.460;2023-05-07T18:10:06;59.54;83.00
74420;DHT22;62855;50.718;-2.460;2023-05-07T18:13:05;59.18;83.00
74420;DHT22;62855;50.718;-2.460;2023-05-07T18:16:06;59.18;83.00
74420;DHT22;62855;50.718;-2.460;2023-05-07T18:19:06;59.00;83.00
74420;DHT22;62855;50.718;-2.460;2023-05-07T18:22:06;58.82;83.00
74420;DHT22;62855;50.718;-2.460;2023-05-07T18:25:07;58.46;83.00
74420;DHT22;62855;50.718;-2.460;2023-05-07T18:28:06;58.28;83.00
74420;DHT22;62855;50.718;-2.460;2023-05-07T18:31:06;58.10;83.00
74420;DHT22;62855;50.718;-2.460;2023-05-07T18:34:06;57.74;83.00
74420;DHT22;62855;50.718;-2.460;2023-05-07T18:37:06;57.56;83.00
74420;DHT22;62855;50.718;-2.460;2023-05-07T18:40:06;57.38;83.00
74420;DHT22;62855;50.718;-2.460;2023-05-07T18:43:06;57.38;83.00